CheckWX is a tool to help pilots better visualize weather data.  It is not intended as a substitute for an official pre-flight weather briefing.

18:58:02 UTC

ETNW TAF
Wunstorf Airport
Germany
TAF ETNW 200400Z 2005/2105 24005KT 9999 NSW BKN050 BKN300 BECMG 2018/2020 27003KT 9999 NSW BKN350 PROB30 2102/2105 VRB01KT 5000 BR FEW350 BY ETGL

Sep-20@
05:00 UTC

Sep-20 @ 05:00 UTC

Sep-20@
18:00 UTC

Sep-20 @ 18:00 UTC

TAF ETNW 200400Z 2005/2105 24005KT 9999 NSW BKN050 BKN300

Expired

Wind
  • 240° at 5 KTS
Conditions
No significant weather
Cloud Levels
  • Broken at 5,000' AGL
  • Broken at 30,000' AGL

Sep-20@
18:00 UTC

Sep-20 @ 18:00 UTC

Sep-21@
05:00 UTC

Sep-21 @ 05:00 UTC

BECMG 2018/2020 27003KT 9999 NSW BKN350

Becoming

Becoming Conditions expected by Fri, Sep 20, 2019 @ 20:00 UTC

Wind
  • 270° at 3 KTS
Conditions
No significant weather
Cloud Levels
  • Broken at 35,000' AGL

Sep-21@
02:00 UTC

Sep-21 @ 02:00 UTC

Sep-21@
05:00 UTC

Sep-21 @ 05:00 UTC

PROB30 2102/2105 VRB01KT 5000 BR FEW350 BY ETGL

Probable - 30% Likelihood

Probable - 30% Likelihood during this time.

Wind
  • Variable at 1 KTS
Conditions
Mist
Cloud Levels
  • Few at 35,000' AGL